createdAt,value
2019-05-18T00:05:46.114Z,13.30
2019-05-18T00:08:19.714Z,13.30
2019-05-18T00:10:53.318Z,13.40
2019-05-18T00:13:26.990Z,13.40
2019-05-18T00:16:00.655Z,13.40
2019-05-18T00:22:20.346Z,13.30
2019-05-18T00:24:53.990Z,13.40
2019-05-18T00:27:27.600Z,13.30
2019-05-18T00:30:01.338Z,13.30
2019-05-18T00:32:34.993Z,13.40
2019-05-18T00:35:09.334Z,13.40
2019-05-18T00:37:42.937Z,13.30
2019-05-18T00:40:16.644Z,13.30
2019-05-18T00:42:50.242Z,13.40
2019-05-18T00:45:23.903Z,13.30
2019-05-18T00:47:59.472Z,13.30
2019-05-18T00:50:32.892Z,13.30
2019-05-18T00:53:06.542Z,13.30
2019-05-18T00:55:40.272Z,13.30
2019-05-18T00:58:14.006Z,13.30
2019-05-18T01:00:47.664Z,13.30
2019-05-18T01:03:21.268Z,13.30
2019-05-18T01:05:54.890Z,13.20
2019-05-18T01:08:28.611Z,13.20
2019-05-18T01:11:02.237Z,13.20
2019-05-18T01:13:35.798Z,13.30
2019-05-18T01:16:09.392Z,13.20
2019-05-18T01:18:43.274Z,13.20
2019-05-18T01:21:16.867Z,13.20
2019-05-18T01:23:50.594Z,13.20
2019-05-18T01:26:24.262Z,13.20
2019-05-18T01:29:04.099Z,13.20
2019-05-18T01:31:37.860Z,13.20
2019-05-18T01:34:11.563Z,13.10
2019-05-18T01:36:45.292Z,13.20
2019-05-18T01:39:18.952Z,13.20
2019-05-18T01:41:52.538Z,13.10
2019-05-18T01:44:26.184Z,13.20
2019-05-18T01:46:59.843Z,13.10
2019-05-18T01:49:33.538Z,13.10
2019-05-18T01:52:07.251Z,13.10
2019-05-18T01:54:41.110Z,13.10
2019-05-18T01:57:14.734Z,13.10
2019-05-18T01:59:48.378Z,13.10
2019-05-18T02:06:08.459Z,13.00
2019-05-18T02:08:42.097Z,13.00
2019-05-18T02:11:15.815Z,13.00
2019-05-18T02:13:49.444Z,13.00
2019-05-18T02:16:23.062Z,13.00
2019-05-18T02:22:33.623Z,13.00
2019-05-18T02:25:07.663Z,13.00
2019-05-18T02:27:41.302Z,12.90
2019-05-18T02:30:17.555Z,12.90
2019-05-18T02:32:50.305Z,12.90
2019-05-18T02:35:23.949Z,12.90
2019-05-18T02:37:59.173Z,12.80
2019-05-18T02:40:32.770Z,12.80
2019-05-18T02:43:06.403Z,12.70
2019-05-18T02:45:40.136Z,12.70
2019-05-18T02:48:13.843Z,12.70
2019-05-18T02:50:47.505Z,12.70
2019-05-18T02:53:21.283Z,12.70
2019-05-18T02:55:54.868Z,12.60
2019-05-18T02:58:28.533Z,12.60
2019-05-18T03:01:02.170Z,12.60
2019-05-18T03:03:35.877Z,12.60
2019-05-18T03:06:09.689Z,12.60
2019-05-18T03:08:43.454Z,12.70
2019-05-18T03:11:17.077Z,12.70
2019-05-18T03:13:50.789Z,12.70
2019-05-18T03:16:24.421Z,12.70
2019-05-18T03:19:08.428Z,12.70
2019-05-18T03:21:34.481Z,12.70
2019-05-18T03:24:08.206Z,12.60
2019-05-18T03:26:41.860Z,12.70
2019-05-18T03:29:15.581Z,12.70
2019-05-18T03:31:55.402Z,12.70
2019-05-18T03:34:29.010Z,12.80
2019-05-18T03:37:02.794Z,12.70
2019-05-18T03:39:36.513Z,12.80
2019-05-18T03:42:10.145Z,12.90
2019-05-18T03:44:43.837Z,12.90
2019-05-18T03:47:17.492Z,12.90
2019-05-18T03:49:51.429Z,12.90
2019-05-18T03:52:25.167Z,12.90
2019-05-18T03:54:58.820Z,12.90
2019-05-18T03:57:32.472Z,12.90
2019-05-18T04:00:08.311Z,12.90
2019-05-18T04:06:19.226Z,12.90
2019-05-18T04:08:52.928Z,12.90
2019-05-18T04:11:26.641Z,13.00
2019-05-18T04:14:00.263Z,13.00
2019-05-18T04:16:37.639Z,13.00
2019-05-18T04:22:57.325Z,13.00
2019-05-18T04:25:30.949Z,13.10
2019-05-18T04:28:04.645Z,13.20
2019-05-18T04:30:38.326Z,13.20
2019-05-18T04:33:11.954Z,13.10
2019-05-18T04:35:45.628Z,13.10
2019-05-18T04:38:19.333Z,13.10
2019-05-18T04:40:52.926Z,13.20
2019-05-18T04:43:26.640Z,13.30
2019-05-18T04:46:00.312Z,13.30
2019-05-18T04:48:33.911Z,13.40
2019-05-18T04:51:07.529Z,13.40
2019-05-18T04:53:41.174Z,13.40
2019-05-18T04:56:14.771Z,13.40
2019-05-18T04:58:48.510Z,13.50
2019-05-18T05:01:22.273Z,13.40
2019-05-18T05:03:55.906Z,13.40
2019-05-18T05:06:29.520Z,13.50
2019-05-18T05:09:04.822Z,13.50
2019-05-18T05:11:38.419Z,13.60
2019-05-18T05:14:12.117Z,13.60
2019-05-18T05:16:45.745Z,13.70
2019-05-18T05:19:19.357Z,13.80
2019-05-18T05:21:52.963Z,13.80
2019-05-18T05:24:26.573Z,13.90
2019-05-18T05:27:00.192Z,14.00
2019-05-18T05:29:33.761Z,14.00
2019-05-18T05:32:07.403Z,13.80
2019-05-18T05:34:41.001Z,13.60
2019-05-18T05:37:14.717Z,13.50
2019-05-18T05:39:48.320Z,13.40
2019-05-18T05:42:21.997Z,13.50
2019-05-18T05:44:55.632Z,13.60
2019-05-18T05:47:29.252Z,13.70
2019-05-18T05:50:02.965Z,13.80
2019-05-18T05:52:36.632Z,13.80
2019-05-18T05:55:11.038Z,14.10
2019-05-18T05:57:44.622Z,13.90
2019-05-18T06:00:18.834Z,13.90
2019-05-18T06:02:52.473Z,14.00
2019-05-18T06:05:26.242Z,14.20
2019-05-18T06:07:59.901Z,14.40
2019-05-18T06:10:33.524Z,14.60
2019-05-18T06:13:07.658Z,14.70
2019-05-18T06:15:41.289Z,15.00
2019-05-18T06:22:01.211Z,15.80
2019-05-18T06:24:34.910Z,16.40
2019-05-18T06:27:08.497Z,17.40
2019-05-18T06:29:42.130Z,18.50
2019-05-18T06:32:15.809Z,19.30
2019-05-18T06:38:26.963Z,20.10
2019-05-18T06:41:00.528Z,21.10
2019-05-18T06:43:34.154Z,21.50
2019-05-18T06:46:07.744Z,22.10
2019-05-18T06:48:41.411Z,22.70
2019-05-18T06:51:15.046Z,23.00
2019-05-18T06:53:49.036Z,24.80
2019-05-18T06:56:23.124Z,25.30
2019-05-18T06:58:58.161Z,24.30
2019-05-18T07:01:31.802Z,22.60
2019-05-18T07:04:05.528Z,21.50
2019-05-18T07:06:39.426Z,22.10
2019-05-18T07:09:14.467Z,22.50
2019-05-18T07:11:48.322Z,22.00
2019-05-18T07:14:25.826Z,20.90
2019-05-18T07:16:57.254Z,21.10
2019-05-18T07:19:30.951Z,21.50
2019-05-18T07:22:05.651Z,21.80
2019-05-18T07:24:39.289Z,21.80
2019-05-18T07:27:12.896Z,22.00
2019-05-18T07:29:46.580Z,21.20
2019-05-18T07:32:20.205Z,21.00
2019-05-18T07:34:53.836Z,20.80
2019-05-18T07:37:27.567Z,20.70
2019-05-18T07:40:01.200Z,20.60
2019-05-18T07:42:34.807Z,20.40
2019-05-18T07:45:09.209Z,20.10
2019-05-18T07:47:42.956Z,20.20
2019-05-18T07:50:16.809Z,20.30
2019-05-18T07:52:50.522Z,19.70
2019-05-18T07:55:24.204Z,20.10
2019-05-18T07:57:57.909Z,20.30
2019-05-18T08:00:31.673Z,20.10
2019-05-18T08:03:05.429Z,20.10
2019-05-18T08:05:39.022Z,19.90
2019-05-18T08:08:12.661Z,20.30
2019-05-18T08:10:46.272Z,20.30
2019-05-18T08:13:19.907Z,20.50
2019-05-18T08:15:53.584Z,20.60
2019-05-18T08:22:04.696Z,20.00
2019-05-18T08:24:38.388Z,19.50
2019-05-18T08:27:12.064Z,19.60
2019-05-18T08:29:45.998Z,19.10
2019-05-18T08:32:19.584Z,19.30
2019-05-18T08:38:30.140Z,19.10
2019-05-18T08:41:03.747Z,18.30
2019-05-18T08:43:37.472Z,17.30
2019-05-18T08:46:11.062Z,17.50
2019-05-18T08:48:44.692Z,17.00
2019-05-18T08:51:18.355Z,16.40
2019-05-18T08:53:52.027Z,16.30
2019-05-18T08:56:25.662Z,16.30
2019-05-18T08:58:59.389Z,16.10
2019-05-18T09:01:33.063Z,16.00
2019-05-18T09:04:06.775Z,15.80
2019-05-18T09:06:40.383Z,15.90
2019-05-18T09:09:14.023Z,16.00
2019-05-18T09:11:47.629Z,16.20
2019-05-18T09:14:21.337Z,16.20
2019-05-18T09:16:54.926Z,16.30
2019-05-18T09:19:28.578Z,16.10
2019-05-18T09:22:02.242Z,16.20
2019-05-18T09:24:36.004Z,15.90
2019-05-18T09:27:09.684Z,15.90
2019-05-18T09:29:43.352Z,15.90
2019-05-18T09:32:17.038Z,16.10
2019-05-18T09:34:50.728Z,16.00
2019-05-18T09:37:24.316Z,15.90
2019-05-18T09:39:58.046Z,15.90
2019-05-18T09:42:31.709Z,15.40
2019-05-18T09:45:07.099Z,15.30
2019-05-18T09:47:41.146Z,15.00
2019-05-18T09:50:15.197Z,15.00
2019-05-18T09:52:48.792Z,15.00
2019-05-18T09:55:22.634Z,14.80
2019-05-18T09:57:56.272Z,14.80
2019-05-18T10:00:38.004Z,14.60
2019-05-18T10:03:05.371Z,14.50
2019-05-18T10:05:39.022Z,14.40
2019-05-18T10:08:12.616Z,14.50
2019-05-18T10:10:46.609Z,14.50
2019-05-18T10:13:20.286Z,14.40
2019-05-18T10:15:53.884Z,14.20
2019-05-18T10:18:27.467Z,14.30
2019-05-18T10:21:01.217Z,14.50
2019-05-18T10:23:34.820Z,14.60
2019-05-18T10:26:08.464Z,14.40
2019-05-18T10:29:01.393Z,14.30
2019-05-18T10:31:35.414Z,14.30
2019-05-18T10:34:09.051Z,14.10
2019-05-18T10:36:43.811Z,14.10
2019-05-18T10:39:17.699Z,14.00
2019-05-18T10:41:51.500Z,14.00
2019-05-18T10:44:25.245Z,13.90
2019-05-18T10:46:58.844Z,13.90
2019-05-18T10:49:32.500Z,13.90
2019-05-18T10:52:06.220Z,13.90
2019-05-18T10:54:39.926Z,13.90
2019-05-18T10:57:13.572Z,13.90
2019-05-18T10:59:47.334Z,13.40
2019-05-18T11:02:20.980Z,13.30
2019-05-18T11:04:54.640Z,13.20
2019-05-18T11:07:29.077Z,13.10
2019-05-18T11:10:03.080Z,13.10
2019-05-18T11:12:36.756Z,13.20
2019-05-18T11:15:12.439Z,13.40
2019-05-18T11:17:46.106Z,13.50
2019-05-18T11:20:20.178Z,13.50
2019-05-18T11:22:53.830Z,13.60
2019-05-18T11:25:34.703Z,13.70
2019-05-18T11:28:08.442Z,13.90
2019-05-18T11:30:42.073Z,14.20
2019-05-18T11:33:15.740Z,14.20
2019-05-18T11:35:49.344Z,14.50
2019-05-18T11:38:23.364Z,14.70
2019-05-18T11:40:56.966Z,14.90
2019-05-18T11:43:31.548Z,15.00
2019-05-18T11:46:05.325Z,15.20
2019-05-18T11:48:38.972Z,15.40
2019-05-18T11:51:12.683Z,15.60
2019-05-18T11:53:57.501Z,15.80
2019-05-18T11:56:21.635Z,16.10
2019-05-18T11:58:55.224Z,16.50
2019-05-18T12:01:28.842Z,16.80
2019-05-18T12:04:02.502Z,16.90
2019-05-18T12:06:36.113Z,17.10
2019-05-18T12:09:09.706Z,17.20
2019-05-18T12:11:43.296Z,17.10
2019-05-18T12:14:17.072Z,17.10
2019-05-18T12:16:50.760Z,17.30
2019-05-18T12:19:24.349Z,17.70
2019-05-18T12:21:57.999Z,17.90
2019-05-18T12:24:31.603Z,18.10
2019-05-18T12:27:05.367Z,18.10
2019-05-18T12:29:39.119Z,18.10
2019-05-18T12:32:12.749Z,18.00
2019-05-18T12:34:46.346Z,18.20
2019-05-18T12:37:23.384Z,18.20
2019-05-18T12:39:57.043Z,17.90
2019-05-18T12:42:30.670Z,18.00
2019-05-18T12:45:05.055Z,17.70
2019-05-18T12:47:38.694Z,17.70
2019-05-18T12:50:12.865Z,17.70
2019-05-18T12:52:46.681Z,17.70
2019-05-18T12:55:20.900Z,17.50
2019-05-18T12:57:54.727Z,17.10
2019-05-18T13:00:28.916Z,16.60
2019-05-18T13:03:03.537Z,16.40
2019-05-18T13:05:37.197Z,16.10
2019-05-18T13:08:10.825Z,15.90
2019-05-18T13:10:44.574Z,15.60
2019-05-18T13:13:18.159Z,15.60
2019-05-18T13:15:51.808Z,15.40
2019-05-18T13:18:25.567Z,15.40
2019-05-18T13:20:59.283Z,15.40
2019-05-18T13:23:32.995Z,15.40
2019-05-18T13:26:06.768Z,15.50
2019-05-18T13:28:40.400Z,15.40
2019-05-18T13:31:14.111Z,15.30
2019-05-18T13:33:47.845Z,15.50
2019-05-18T13:36:21.443Z,15.60
2019-05-18T13:38:55.052Z,15.60
2019-05-18T13:41:28.856Z,15.80
2019-05-18T13:44:02.465Z,15.80
2019-05-18T13:46:36.090Z,16.10
2019-05-18T13:49:09.710Z,16.30
2019-05-18T13:51:43.490Z,16.30
2019-05-18T13:54:17.161Z,16.20
2019-05-18T13:56:50.751Z,15.90
2019-05-18T13:59:24.566Z,15.90
2019-05-18T14:01:58.836Z,15.40
2019-05-18T14:04:32.574Z,15.20
2019-05-18T14:07:06.393Z,15.20
2019-05-18T14:09:40.071Z,15.40
2019-05-18T14:12:13.863Z,15.30
2019-05-18T14:14:48.056Z,15.30
2019-05-18T14:17:21.720Z,15.30
2019-05-18T14:19:55.567Z,15.60
2019-05-18T14:22:29.173Z,15.80
2019-05-18T14:25:10.572Z,15.50
2019-05-18T14:27:38.132Z,15.70
2019-05-18T14:30:12.472Z,15.80
2019-05-18T14:32:46.254Z,16.00
2019-05-18T14:35:20.027Z,16.50
2019-05-18T14:37:54.025Z,16.70
2019-05-18T14:40:27.754Z,16.90
2019-05-18T14:43:01.391Z,17.10
2019-05-18T14:45:35.061Z,17.30
2019-05-18T14:48:10.482Z,17.30
2019-05-18T14:50:44.716Z,17.50
2019-05-18T14:53:18.370Z,17.70
2019-05-18T14:55:52.171Z,18.00
2019-05-18T14:58:25.893Z,18.10
2019-05-18T15:00:59.498Z,18.20
2019-05-18T15:03:33.128Z,18.50
2019-05-18T15:06:06.879Z,18.50
2019-05-18T15:08:40.480Z,18.80
2019-05-18T15:11:14.097Z,18.80
2019-05-18T15:13:47.708Z,18.70
2019-05-18T15:16:21.413Z,18.50
2019-05-18T15:18:57.695Z,18.20
2019-05-18T15:21:31.420Z,18.20
2019-05-18T15:24:08.538Z,18.20
2019-05-18T15:26:40.305Z,18.30
2019-05-18T15:29:14.040Z,18.30
2019-05-18T15:31:47.716Z,18.20
2019-05-18T15:34:21.355Z,18.10
2019-05-18T15:36:55.083Z,17.80
2019-05-18T15:39:28.759Z,17.70
2019-05-18T15:42:02.448Z,17.90
2019-05-18T15:44:36.187Z,18.10
2019-05-18T15:47:09.892Z,18.30
2019-05-18T15:49:43.501Z,18.40
2019-05-18T15:52:17.199Z,18.40
2019-05-18T15:54:50.871Z,18.40
2019-05-18T15:57:24.563Z,18.30
2019-05-18T15:59:58.163Z,18.10
2019-05-18T16:02:31.753Z,18.20
2019-05-18T16:05:05.874Z,18.20
2019-05-18T16:07:39.705Z,18.10
2019-05-18T16:10:14.317Z,18.00
2019-05-18T16:12:48.223Z,18.00
2019-05-18T16:15:22.081Z,17.90
2019-05-18T16:17:55.807Z,17.90
2019-05-18T16:20:29.542Z,17.90
2019-05-18T16:23:03.538Z,17.90
2019-05-18T16:25:37.227Z,18.00
2019-05-18T16:28:10.887Z,18.20
2019-05-18T16:30:44.559Z,18.30
2019-05-18T16:33:18.321Z,18.40
2019-05-18T16:35:51.989Z,18.50
2019-05-18T16:38:25.674Z,18.40
2019-05-18T16:40:59.360Z,18.40
2019-05-18T16:43:33.737Z,18.30
2019-05-18T16:46:07.415Z,18.30
2019-05-18T16:48:41.060Z,18.20
2019-05-18T16:51:14.689Z,18.30
2019-05-18T16:53:50.309Z,18.20
2019-05-18T16:56:34.622Z,18.20
2019-05-18T16:58:59.036Z,18.20
2019-05-18T17:01:32.750Z,18.20
2019-05-18T17:04:06.393Z,18.20
2019-05-18T17:06:40.043Z,18.20
2019-05-18T17:09:13.638Z,18.20
2019-05-18T17:11:48.096Z,18.20
2019-05-18T17:14:22.026Z,18.20
2019-05-18T17:16:55.639Z,18.20
2019-05-18T17:19:29.710Z,18.20
2019-05-18T17:22:03.483Z,18.20
2019-05-18T17:24:37.079Z,18.20
2019-05-18T17:27:10.993Z,18.20
2019-05-18T17:29:44.657Z,18.20
2019-05-18T17:32:18.436Z,18.10
2019-05-18T17:34:52.041Z,18.10
2019-05-18T17:37:25.642Z,18.10
2019-05-18T17:39:59.296Z,17.90
2019-05-18T17:42:32.951Z,17.80
2019-05-18T17:45:07.801Z,17.70
2019-05-18T17:47:41.900Z,17.70
2019-05-18T17:50:15.728Z,17.30
2019-05-18T17:52:49.462Z,17.20
2019-05-18T17:55:23.226Z,17.00
2019-05-18T17:57:56.964Z,16.60
2019-05-18T18:00:30.693Z,16.30
2019-05-18T18:03:04.420Z,16.10
2019-05-18T18:05:38.010Z,15.80
2019-05-18T18:08:11.712Z,15.80
2019-05-18T18:10:45.300Z,15.60
2019-05-18T18:13:18.951Z,15.60
2019-05-18T18:15:52.555Z,15.60
2019-05-18T18:18:26.226Z,15.50
2019-05-18T18:20:59.864Z,15.40
2019-05-18T18:23:33.486Z,15.30
2019-05-18T18:26:07.137Z,15.20
2019-05-18T18:28:40.849Z,15.10
2019-05-18T18:31:14.447Z,15.10
2019-05-18T18:33:48.236Z,15.00
2019-05-18T18:36:21.838Z,15.00
2019-05-18T18:38:55.481Z,14.90
2019-05-18T18:41:29.238Z,14.90
2019-05-18T18:44:03.968Z,14.80
2019-05-18T18:46:38.033Z,14.80
2019-05-18T18:49:12.035Z,14.70
2019-05-18T18:51:45.640Z,14.60
2019-05-18T18:54:19.351Z,14.50
2019-05-18T18:56:52.968Z,14.50
2019-05-18T18:59:26.586Z,14.40
2019-05-18T19:02:00.319Z,14.40
2019-05-18T19:04:34.098Z,14.40
2019-05-18T19:07:09.227Z,14.30
2019-05-18T19:09:43.010Z,14.20
2019-05-18T19:12:16.608Z,14.10
2019-05-18T19:14:50.256Z,14.10
2019-05-18T19:17:23.852Z,14.00
2019-05-18T19:19:57.561Z,13.90
2019-05-18T19:22:31.166Z,13.90
2019-05-18T19:25:05.523Z,13.80
2019-05-18T19:27:39.142Z,13.80
2019-05-18T19:30:12.947Z,13.90
2019-05-18T19:32:46.654Z,13.80
2019-05-18T19:35:20.273Z,13.60
2019-05-18T19:37:53.931Z,13.60
2019-05-18T19:40:27.589Z,13.60
2019-05-18T19:43:01.282Z,13.60
2019-05-18T19:45:34.878Z,13.60
2019-05-18T19:48:08.522Z,13.60
2019-05-18T19:50:42.496Z,13.60
2019-05-18T19:53:16.212Z,13.60
2019-05-18T19:55:49.802Z,13.60
2019-05-18T19:58:23.460Z,13.60
2019-05-18T20:00:57.044Z,13.60
2019-05-18T20:03:30.706Z,13.60
2019-05-18T20:06:04.711Z,13.60
2019-05-18T20:08:38.597Z,13.60
2019-05-18T20:11:12.181Z,13.50
2019-05-18T20:13:45.848Z,13.50
2019-05-18T20:16:19.523Z,13.50
2019-05-18T20:18:53.485Z,13.40
2019-05-18T20:21:27.550Z,13.40
2019-05-18T20:24:01.170Z,13.40
2019-05-18T20:26:34.981Z,13.50
2019-05-18T20:29:08.676Z,13.50
2019-05-18T20:31:42.314Z,13.50
2019-05-18T20:34:15.876Z,13.50
2019-05-18T20:36:49.583Z,13.50
2019-05-18T20:39:23.214Z,13.60
2019-05-18T20:41:56.894Z,13.60
2019-05-18T20:44:30.564Z,13.60
2019-05-18T20:47:04.215Z,13.60
2019-05-18T20:49:38.310Z,13.60
2019-05-18T20:52:11.921Z,13.60
2019-05-18T20:54:45.717Z,13.60
2019-05-18T20:57:19.362Z,13.60
2019-05-18T20:59:53.062Z,13.60
2019-05-18T21:02:26.730Z,13.50
2019-05-18T21:05:00.944Z,13.50
2019-05-18T21:07:34.605Z,13.40
2019-05-18T21:10:08.975Z,13.40
2019-05-18T21:12:42.624Z,13.40
2019-05-18T21:15:16.835Z,13.50
2019-05-18T21:17:50.495Z,13.50
2019-05-18T21:20:24.370Z,13.40
2019-05-18T21:22:59.488Z,13.30
2019-05-18T21:25:33.824Z,13.30
2019-05-18T21:28:07.491Z,13.20
2019-05-18T21:30:44.094Z,13.20
2019-05-18T21:33:17.758Z,13.20
2019-05-18T21:35:51.397Z,13.20
2019-05-18T21:38:25.323Z,13.20
2019-05-18T21:40:58.998Z,13.10
2019-05-18T21:43:32.576Z,13.20
2019-05-18T21:46:06.246Z,13.20
2019-05-18T21:48:40.283Z,13.30
2019-05-18T21:51:14.002Z,13.30
2019-05-18T21:53:47.744Z,13.30
2019-05-18T21:56:21.488Z,13.30
2019-05-18T21:59:10.154Z,13.30
2019-05-18T22:01:30.720Z,13.30
2019-05-18T22:04:04.665Z,13.20
2019-05-18T22:06:38.376Z,13.20
2019-05-18T22:09:12.132Z,13.20
2019-05-18T22:11:45.808Z,13.20
2019-05-18T22:14:19.407Z,13.20
2019-05-18T22:16:53.394Z,13.10
2019-05-18T22:19:27.086Z,13.10
2019-05-18T22:22:00.773Z,13.00
2019-05-18T22:24:34.505Z,13.00
2019-05-18T22:27:08.213Z,13.00
2019-05-18T22:29:42.103Z,12.90
2019-05-18T22:32:15.810Z,12.90
2019-05-18T22:34:49.391Z,13.00
2019-05-18T22:37:23.036Z,12.90
2019-05-18T22:39:56.775Z,12.90
2019-05-18T22:42:30.629Z,12.90
2019-05-18T22:45:05.009Z,12.90
2019-05-18T22:47:38.678Z,12.90
2019-05-18T22:50:12.702Z,12.90
2019-05-18T22:52:49.022Z,12.80
2019-05-18T22:55:22.724Z,12.90
2019-05-18T22:57:56.383Z,12.90
2019-05-18T23:00:30.052Z,12.90
2019-05-18T23:03:03.708Z,12.90
2019-05-18T23:05:37.307Z,12.90
2019-05-18T23:08:11.019Z,13.00
2019-05-18T23:10:44.685Z,13.00
2019-05-18T23:13:18.348Z,13.00
2019-05-18T23:15:51.989Z,12.90
2019-05-18T23:18:25.640Z,12.90
2019-05-18T23:20:59.180Z,12.90
2019-05-18T23:23:32.783Z,12.90
2019-05-18T23:26:06.487Z,12.80
2019-05-18T23:28:40.103Z,12.70
2019-05-18T23:31:13.811Z,12.70
2019-05-18T23:33:47.406Z,12.60
2019-05-18T23:36:21.056Z,12.50
2019-05-18T23:38:54.696Z,12.40
2019-05-18T23:41:28.363Z,12.40
2019-05-18T23:44:02.022Z,12.40
2019-05-18T23:46:35.700Z,12.30
2019-05-18T23:49:11.135Z,12.20
2019-05-18T23:51:44.538Z,12.20
2019-05-18T23:54:18.176Z,12.20
2019-05-18T23:56:52.147Z,12.10
2019-05-18T23:59:26.763Z,12.10
